createdAt,value
2022-10-25T00:01:44.973Z,20.77
2022-10-25T00:04:13.337Z,20.88
2022-10-25T00:06:41.330Z,21.52
2022-10-25T00:09:09.691Z,21.10
2022-10-25T00:11:37.855Z,21.00
2022-10-25T00:14:08.389Z,22.48
2022-10-25T00:16:38.556Z,22.17
2022-10-25T00:19:06.850Z,22.58
2022-10-25T00:21:34.811Z,22.70
2022-10-25T00:24:02.740Z,22.38
2022-10-25T00:26:30.688Z,23.33
2022-10-25T00:28:58.635Z,22.33
2022-10-25T00:31:27.914Z,23.63
2022-10-25T00:33:55.842Z,24.52
2022-10-25T00:36:26.860Z,22.98
2022-10-25T00:38:56.949Z,24.27
2022-10-25T00:41:27.035Z,22.75
2022-10-25T00:43:56.802Z,22.83
2022-10-25T00:46:29.513Z,21.58
2022-10-25T00:49:02.385Z,23.02
2022-10-25T00:51:35.745Z,23.63
2022-10-25T00:54:03.860Z,22.73
2022-10-25T00:56:37.922Z,21.75
2022-10-25T00:59:09.198Z,23.00
2022-10-25T01:01:39.246Z,21.00
2022-10-25T01:04:10.915Z,21.48
2022-10-25T01:06:40.000Z,21.75
2022-10-25T01:09:09.660Z,20.10
2022-10-25T01:11:38.000Z,18.70
2022-10-25T01:14:08.075Z,19.95
2022-10-25T01:16:44.796Z,18.23
2022-10-25T01:19:42.232Z,16.90
2022-10-25T01:22:16.279Z,18.30
2022-10-25T01:25:04.282Z,17.27
2022-10-25T01:28:08.379Z,17.45
2022-10-25T01:31:00.202Z,17.85
2022-10-25T01:33:33.093Z,17.45
2022-10-25T01:36:08.203Z,18.35
2022-10-25T01:38:42.705Z,16.75
2022-10-25T01:41:20.894Z,16.88
2022-10-25T01:43:58.976Z,16.98
2022-10-25T01:46:33.665Z,17.27
2022-10-25T01:49:05.357Z,18.02
2022-10-25T01:51:37.027Z,17.08
2022-10-25T01:54:17.654Z,18.23
2022-10-25T01:56:52.115Z,18.17
2022-10-25T01:59:31.467Z,16.70
2022-10-25T02:02:12.834Z,17.02
2022-10-25T02:04:48.653Z,16.85
2022-10-25T02:07:22.831Z,16.02
2022-10-25T02:10:00.648Z,19.13
2022-10-25T02:12:33.899Z,17.97
2022-10-25T02:15:10.012Z,18.27
2022-10-25T02:17:44.922Z,18.93
2022-10-25T02:20:16.467Z,17.03
2022-10-25T02:22:45.473Z,17.70
2022-10-25T02:25:14.990Z,17.43
2022-10-25T02:27:44.338Z,16.60
2022-10-25T02:30:13.520Z,17.23
2022-10-25T02:32:42.963Z,16.23
2022-10-25T02:35:15.631Z,16.93
2022-10-25T02:37:44.159Z,16.83
2022-10-25T02:40:13.348Z,16.20
2022-10-25T02:42:41.329Z,17.47
2022-10-25T02:45:10.260Z,16.37
2022-10-25T02:47:38.288Z,16.13
2022-10-25T02:50:08.087Z,17.87
2022-10-25T02:52:36.014Z,17.93
2022-10-25T02:55:03.971Z,17.87
2022-10-25T02:57:34.644Z,17.83
2022-10-25T03:00:02.913Z,17.73
2022-10-25T03:02:30.879Z,17.57
2022-10-25T03:04:58.823Z,17.90
2022-10-25T03:07:28.130Z,18.30
2022-10-25T03:09:56.072Z,17.73
2022-10-25T03:12:24.070Z,17.23
2022-10-25T03:14:51.982Z,17.17
2022-10-25T03:17:19.936Z,17.03
2022-10-25T03:19:47.861Z,17.50
2022-10-25T03:22:15.791Z,19.50
2022-10-25T03:24:45.075Z,17.97
2022-10-25T03:27:13.067Z,17.90
2022-10-25T03:29:41.104Z,19.47
2022-10-25T03:32:09.058Z,19.97
2022-10-25T03:34:37.027Z,22.20
2022-10-25T03:37:04.959Z,21.77
2022-10-25T03:39:32.884Z,24.10
2022-10-25T03:42:02.210Z,24.77
2022-10-25T03:44:30.130Z,26.67
2022-10-25T03:46:58.056Z,29.13
2022-10-25T03:49:26.210Z,28.53
2022-10-25T03:51:57.127Z,30.40
2022-10-25T03:54:29.277Z,32.10
2022-10-25T03:56:57.469Z,33.83
2022-10-25T03:59:27.028Z,33.37
2022-10-25T04:01:55.596Z,34.20
2022-10-25T04:04:23.653Z,35.73
2022-10-25T04:06:51.614Z,33.73
2022-10-25T04:09:19.706Z,32.17
2022-10-25T04:11:47.673Z,29.80
2022-10-25T04:14:15.725Z,30.73
2022-10-25T04:16:45.006Z,28.07
2022-10-25T04:19:12.970Z,27.97
2022-10-25T04:21:41.224Z,29.13
2022-10-25T04:24:09.228Z,26.60
2022-10-25T04:26:37.714Z,25.03
2022-10-25T04:29:06.398Z,23.83
2022-10-25T04:31:34.572Z,21.67
2022-10-25T04:34:03.998Z,24.20
2022-10-25T04:36:32.511Z,24.13
2022-10-25T04:39:00.510Z,24.03
2022-10-25T04:41:28.551Z,24.77
2022-10-25T04:43:56.535Z,25.33
2022-10-25T04:46:24.576Z,24.13
2022-10-25T04:48:52.502Z,23.67
2022-10-25T04:51:21.852Z,25.40
2022-10-25T04:53:49.774Z,22.70
2022-10-25T04:56:17.693Z,23.73
2022-10-25T04:58:45.662Z,22.43
2022-10-25T05:01:16.238Z,23.00
2022-10-25T05:03:44.292Z,24.67
2022-10-25T05:06:13.987Z,23.83
2022-10-25T05:08:45.355Z,25.87
2022-10-25T05:11:15.129Z,24.87
2022-10-25T05:13:44.933Z,24.20
2022-10-25T05:16:17.215Z,26.07
2022-10-25T05:18:46.638Z,24.37
2022-10-25T05:21:15.427Z,24.67
2022-10-25T05:23:44.957Z,25.43
2022-10-25T05:26:14.404Z,27.93
2022-10-25T05:28:44.320Z,27.57
2022-10-25T05:31:15.306Z,26.47
2022-10-25T05:33:45.275Z,26.90
2022-10-25T05:36:13.971Z,25.37
2022-10-25T05:38:42.446Z,23.37
2022-10-25T05:41:14.915Z,22.80
2022-10-25T05:43:43.447Z,23.00
2022-10-25T05:46:13.766Z,21.83
2022-10-25T05:48:48.134Z,19.13
2022-10-25T05:51:33.202Z,20.17
2022-10-25T05:54:04.460Z,21.63
2022-10-25T05:56:34.845Z,23.57
2022-10-25T05:59:08.952Z,21.63
2022-10-25T06:01:38.429Z,19.25
2022-10-25T06:04:07.178Z,18.27
2022-10-25T06:06:35.826Z,17.20
2022-10-25T06:09:04.439Z,18.08
2022-10-25T06:11:34.529Z,17.33
2022-10-25T06:14:02.487Z,17.03
2022-10-25T06:16:30.665Z,17.33
2022-10-25T06:18:58.595Z,15.88
2022-10-25T06:21:28.487Z,13.47
2022-10-25T06:23:57.244Z,14.98
2022-10-25T06:26:28.611Z,14.40
2022-10-25T06:28:59.525Z,13.83
2022-10-25T06:31:28.174Z,13.03
2022-10-25T06:33:56.092Z,13.50
2022-10-25T06:36:26.973Z,14.07
2022-10-25T06:38:55.136Z,13.88
2022-10-25T06:41:25.152Z,14.52
2022-10-25T06:43:53.229Z,14.32
2022-10-25T06:46:24.868Z,14.23
2022-10-25T06:48:54.597Z,13.48
2022-10-25T06:51:23.604Z,13.98
2022-10-25T06:53:55.909Z,14.05
2022-10-25T06:56:24.488Z,12.35
2022-10-25T06:58:52.469Z,13.57
2022-10-25T07:01:23.953Z,14.23
2022-10-25T07:03:53.838Z,12.68
2022-10-25T07:06:26.229Z,13.90
2022-10-25T07:08:56.034Z,13.15
2022-10-25T07:11:25.257Z,12.98
2022-10-25T07:13:53.606Z,12.40
2022-10-25T07:16:24.082Z,12.93
2022-10-25T07:18:52.368Z,14.45
2022-10-25T07:21:22.211Z,16.83
2022-10-25T07:23:51.466Z,18.15
2022-10-25T07:26:22.047Z,18.33
2022-10-25T07:28:52.167Z,19.98
2022-10-25T07:31:22.894Z,18.52
2022-10-25T07:33:53.954Z,18.27
2022-10-25T07:36:22.409Z,18.25
2022-10-25T07:38:50.359Z,17.02
2022-10-25T07:41:19.151Z,16.25
2022-10-25T07:43:47.172Z,15.23
2022-10-25T07:46:15.350Z,13.88
2022-10-25T07:48:43.292Z,15.43
2022-10-25T07:51:14.783Z,15.27
2022-10-25T07:53:42.973Z,14.20
2022-10-25T07:56:16.089Z,15.00
2022-10-25T07:58:46.904Z,15.13
2022-10-25T08:01:19.797Z,14.90
2022-10-25T08:03:47.858Z,15.38
2022-10-25T08:06:17.235Z,16.45
2022-10-25T08:08:45.483Z,16.80
2022-10-25T08:11:13.566Z,20.47
2022-10-25T08:13:41.622Z,18.63
2022-10-25T08:16:10.053Z,16.80
2022-10-25T08:18:38.047Z,16.93
2022-10-25T08:21:06.320Z,15.40
2022-10-25T08:23:35.659Z,15.53
2022-10-25T08:26:04.334Z,14.77
2022-10-25T08:28:32.361Z,15.48
2022-10-25T08:31:01.173Z,14.35
2022-10-25T08:33:30.192Z,14.83
2022-10-25T08:36:01.082Z,12.47
2022-10-25T08:38:29.221Z,12.03
2022-10-25T08:41:07.005Z,10.73
2022-10-25T08:43:52.969Z,11.03
2022-10-25T08:46:27.254Z,10.80
2022-10-25T08:49:04.087Z,10.70
2022-10-25T08:51:36.867Z,11.40
2022-10-25T08:54:12.831Z,11.57
2022-10-25T08:56:57.027Z,10.67
2022-10-25T08:59:36.508Z,10.20
2022-10-25T09:02:13.947Z,10.88
2022-10-25T09:04:41.994Z,9.88
2022-10-25T09:07:23.433Z,10.73
2022-10-25T09:10:01.886Z,11.23
2022-10-25T09:12:40.509Z,10.35
2022-10-25T09:15:13.752Z,10.32
2022-10-25T09:17:48.892Z,11.03
2022-10-25T09:20:21.624Z,9.73
2022-10-25T09:22:51.650Z,10.48
2022-10-25T09:25:24.419Z,10.18
2022-10-25T09:28:00.202Z,10.73
2022-10-25T09:30:30.995Z,9.25
2022-10-25T09:33:02.788Z,10.57
2022-10-25T09:35:36.179Z,10.57
2022-10-25T09:38:12.032Z,10.07
2022-10-25T09:40:47.901Z,10.65
2022-10-25T09:43:21.301Z,9.93
2022-10-25T09:45:52.775Z,10.75
2022-10-25T09:48:26.538Z,10.40
2022-10-25T09:50:59.891Z,11.80
2022-10-25T09:53:27.884Z,11.85
2022-10-25T09:55:57.292Z,9.85
2022-10-25T09:58:29.092Z,9.82
2022-10-25T10:01:00.074Z,11.32
2022-10-25T10:03:30.517Z,10.50
2022-10-25T10:06:03.028Z,11.07
2022-10-25T10:08:35.252Z,10.45
2022-10-25T10:11:06.331Z,11.17
2022-10-25T10:13:42.585Z,11.25
2022-10-25T10:16:22.012Z,12.15
2022-10-25T10:18:50.122Z,10.73
2022-10-25T10:21:20.911Z,10.23
2022-10-25T10:23:52.612Z,10.10
2022-10-25T10:26:29.278Z,10.27
2022-10-25T10:29:08.862Z,10.32
2022-10-25T10:31:39.624Z,10.85
2022-10-25T10:34:20.529Z,11.25
2022-10-25T10:36:50.103Z,13.40
2022-10-25T10:39:23.084Z,12.75
2022-10-25T10:42:03.319Z,12.48
2022-10-25T10:44:34.855Z,14.00
2022-10-25T10:47:10.997Z,14.10
2022-10-25T10:49:41.095Z,11.88
2022-10-25T10:52:28.873Z,10.23
2022-10-25T10:54:57.934Z,9.52
2022-10-25T10:57:30.899Z,10.35
2022-10-25T11:00:01.334Z,9.85
2022-10-25T11:02:38.087Z,10.25
2022-10-25T11:05:24.095Z,9.82
2022-10-25T11:07:57.339Z,11.50
2022-10-25T11:10:28.795Z,11.40
2022-10-25T11:13:11.731Z,12.90
2022-10-25T11:16:00.466Z,12.02
2022-10-25T11:18:38.904Z,12.35
2022-10-25T11:21:14.523Z,11.35
2022-10-25T11:23:55.042Z,10.98
2022-10-25T11:26:33.015Z,9.75
2022-10-25T11:29:11.215Z,8.45
2022-10-25T11:31:53.581Z,8.65
2022-10-25T11:34:31.299Z,8.75
2022-10-25T11:37:07.914Z,8.75
2022-10-25T11:39:48.753Z,7.63
2022-10-25T11:42:30.642Z,7.70
2022-10-25T11:45:18.606Z,7.95
2022-10-25T11:48:00.039Z,8.05
2022-10-25T11:50:33.838Z,8.35
2022-10-25T11:53:19.667Z,8.10
2022-10-25T11:55:52.991Z,7.95
2022-10-25T11:58:34.839Z,7.85
2022-10-25T12:01:11.821Z,7.85
2022-10-25T12:03:55.833Z,7.78
2022-10-25T12:06:29.673Z,7.72
2022-10-25T12:09:04.554Z,7.28
2022-10-25T12:11:35.528Z,7.63
2022-10-25T12:14:08.725Z,6.88
2022-10-25T12:16:37.550Z,6.88
2022-10-25T12:19:15.308Z,6.95
2022-10-25T12:21:47.406Z,6.93
2022-10-25T12:24:20.786Z,6.45
2022-10-25T12:26:51.466Z,6.20
2022-10-25T12:29:26.427Z,6.30
2022-10-25T12:31:57.928Z,5.82
2022-10-25T12:34:39.499Z,6.15
2022-10-25T12:37:14.464Z,6.18
2022-10-25T12:39:43.973Z,6.68
2022-10-25T12:42:18.352Z,6.50
2022-10-25T12:45:14.397Z,6.13
2022-10-25T12:47:58.721Z,6.97
2022-10-25T12:50:53.277Z,6.82
2022-10-25T12:54:10.109Z,7.13
2022-10-25T12:56:49.288Z,6.28
2022-10-25T12:59:40.624Z,6.75
2022-10-25T13:02:26.185Z,7.15
2022-10-25T13:05:08.747Z,7.38
2022-10-25T13:07:39.116Z,7.97
2022-10-25T13:10:16.165Z,7.57
2022-10-25T13:12:58.460Z,6.25
2022-10-25T13:15:26.481Z,6.05
2022-10-25T13:18:03.557Z,5.20
2022-10-25T13:20:49.477Z,5.80
2022-10-25T13:23:58.473Z,5.25
2022-10-25T13:26:30.686Z,6.00
2022-10-25T13:29:00.616Z,5.35
2022-10-25T13:31:47.886Z,5.53
2022-10-25T13:34:36.515Z,5.57
2022-10-25T13:37:06.953Z,5.57
2022-10-25T13:39:43.524Z,5.80
2022-10-25T13:42:26.472Z,6.07
2022-10-25T13:44:57.203Z,6.65
2022-10-25T13:47:36.524Z,6.50
2022-10-25T13:53:02.490Z,5.47
2022-10-25T13:55:35.984Z,6.55
2022-10-25T13:58:42.494Z,6.00
2022-10-25T14:01:58.832Z,5.40
2022-10-25T14:04:40.522Z,5.68
2022-10-25T14:07:43.252Z,5.47
2022-10-25T14:10:21.748Z,5.47
2022-10-25T14:12:55.654Z,5.30
2022-10-25T14:15:34.614Z,5.50
2022-10-25T14:18:09.233Z,6.25
2022-10-25T14:20:38.219Z,6.25
2022-10-25T14:23:08.948Z,6.60
2022-10-25T14:25:38.615Z,6.45
2022-10-25T14:28:16.560Z,6.43
2022-10-25T14:30:45.660Z,6.30
2022-10-25T14:33:25.832Z,6.70
2022-10-25T14:35:56.575Z,6.85
2022-10-25T14:38:26.498Z,6.63
2022-10-25T14:40:56.639Z,6.28
2022-10-25T14:43:29.846Z,7.93
2022-10-25T14:46:03.508Z,6.70
2022-10-25T14:48:31.713Z,6.38
2022-10-25T14:51:04.529Z,6.38
2022-10-25T14:53:32.879Z,6.90
2022-10-25T14:56:03.310Z,7.13
2022-10-25T14:58:41.231Z,7.25
2022-10-25T15:01:11.684Z,6.82
2022-10-25T15:03:44.089Z,7.45
2022-10-25T15:06:14.200Z,6.95
2022-10-25T15:08:49.200Z,9.15
2022-10-25T15:11:21.143Z,7.57
2022-10-25T15:13:53.222Z,7.82
2022-10-25T15:16:30.663Z,7.65
2022-10-25T15:19:18.346Z,8.77
2022-10-25T15:21:48.668Z,8.23
2022-10-25T15:24:19.579Z,7.97
2022-10-25T15:26:55.355Z,8.70
2022-10-25T15:32:22.338Z,8.82
2022-10-25T15:34:52.205Z,9.15
2022-10-25T15:37:22.347Z,8.43
2022-10-25T15:39:51.784Z,9.02
2022-10-25T15:42:20.433Z,9.70
2022-10-25T15:44:49.712Z,9.63
2022-10-25T15:47:35.575Z,9.95
2022-10-25T15:50:07.639Z,9.35
2022-10-25T15:52:35.575Z,10.27
2022-10-25T15:55:03.848Z,9.57
2022-10-25T15:57:31.784Z,10.45
2022-10-25T16:00:01.087Z,10.63
2022-10-25T16:02:31.871Z,11.73
2022-10-25T16:04:59.813Z,12.55
2022-10-25T16:07:27.813Z,11.45
2022-10-25T16:09:55.784Z,11.75
2022-10-25T16:12:31.267Z,11.93
2022-10-25T16:15:00.643Z,11.57
2022-10-25T16:17:28.649Z,12.50
2022-10-25T16:19:56.629Z,12.43
2022-10-25T16:22:24.661Z,12.32
2022-10-25T16:24:52.602Z,12.20
2022-10-25T16:27:20.761Z,11.20
2022-10-25T16:29:48.676Z,11.20
2022-10-25T16:32:18.657Z,12.65
2022-10-25T16:34:46.597Z,12.48
2022-10-25T16:37:14.560Z,12.50
2022-10-25T16:39:42.502Z,13.40
2022-10-25T16:42:28.551Z,13.90
2022-10-25T16:44:56.597Z,13.60
2022-10-25T16:47:26.378Z,13.65
2022-10-25T16:49:54.363Z,13.88
2022-10-25T16:52:22.676Z,13.00
2022-10-25T16:54:50.610Z,15.13
2022-10-25T16:57:18.568Z,14.63
2022-10-25T16:59:46.618Z,15.10
2022-10-25T17:02:19.721Z,15.93
2022-10-25T17:04:50.248Z,15.20
2022-10-25T17:07:18.264Z,15.10
2022-10-25T17:09:46.233Z,13.30
2022-10-25T17:12:14.254Z,13.40
2022-10-25T17:14:42.225Z,13.13
2022-10-25T17:17:10.255Z,14.93
2022-10-25T17:19:38.320Z,14.27
2022-10-25T17:22:07.619Z,15.07
2022-10-25T17:24:37.617Z,14.80
2022-10-25T17:27:06.546Z,16.23
2022-10-25T17:29:34.647Z,17.25
2022-10-25T17:32:02.586Z,17.88
2022-10-25T17:34:32.141Z,19.40
2022-10-25T17:37:02.187Z,18.10
2022-10-25T17:39:31.745Z,16.25
2022-10-25T17:41:59.683Z,16.60
2022-10-25T17:44:27.616Z,16.00
2022-10-25T17:46:57.369Z,14.40
2022-10-25T17:49:27.529Z,14.13
2022-10-25T17:51:55.489Z,14.77
2022-10-25T17:54:23.436Z,14.40
2022-10-25T17:56:56.432Z,15.02
2022-10-25T17:59:24.461Z,14.85
2022-10-25T18:01:52.519Z,14.50
2022-10-25T18:04:20.544Z,14.43
2022-10-25T18:06:48.619Z,14.20
2022-10-25T18:09:16.607Z,14.18
2022-10-25T18:11:44.906Z,13.23
2022-10-25T18:14:14.272Z,13.38
2022-10-25T18:16:42.427Z,14.13
2022-10-25T18:19:14.514Z,14.32
2022-10-25T18:21:42.646Z,15.30
2022-10-25T18:24:13.588Z,15.52
2022-10-25T18:26:41.754Z,16.38
2022-10-25T18:29:10.903Z,16.63
2022-10-25T18:31:40.242Z,15.53
2022-10-25T18:34:08.204Z,15.70
2022-10-25T18:36:36.197Z,13.02
2022-10-25T18:39:04.477Z,13.68
2022-10-25T18:41:35.175Z,13.50
2022-10-25T18:44:03.788Z,13.23
2022-10-25T18:46:32.681Z,13.13
2022-10-25T18:49:02.043Z,11.57
2022-10-25T18:51:30.568Z,11.93
2022-10-25T18:54:00.176Z,11.33
2022-10-25T18:56:29.301Z,11.35
2022-10-25T18:58:58.971Z,12.97
2022-10-25T19:01:32.800Z,12.60
2022-10-25T19:04:04.582Z,13.60
2022-10-25T19:06:33.278Z,13.90
2022-10-25T19:09:02.917Z,14.33
2022-10-25T19:11:32.891Z,15.93
2022-10-25T19:14:01.420Z,15.48
2022-10-25T19:16:29.346Z,17.42
2022-10-25T19:18:57.299Z,16.30
2022-10-25T19:21:26.580Z,17.13
2022-10-25T19:23:54.585Z,17.50
2022-10-25T19:26:23.155Z,19.95
2022-10-25T19:28:58.081Z,20.23
2022-10-25T19:31:27.227Z,20.25
2022-10-25T19:33:58.510Z,20.85
2022-10-25T19:36:28.005Z,19.13
2022-10-25T19:38:56.040Z,19.75
2022-10-25T19:41:25.705Z,19.77
2022-10-25T19:43:56.336Z,19.88
2022-10-25T19:46:24.339Z,18.40
2022-10-25T19:48:52.254Z,17.27
2022-10-25T19:51:21.752Z,18.30
2022-10-25T19:53:51.102Z,17.92
2022-10-25T19:56:20.682Z,18.80
2022-10-25T19:58:49.497Z,19.13
2022-10-25T20:01:19.411Z,20.77
2022-10-25T20:03:50.413Z,23.25
2022-10-25T20:06:23.449Z,21.25
2022-10-25T20:08:55.014Z,20.73
2022-10-25T20:11:24.327Z,20.35
2022-10-25T20:13:54.264Z,20.95
2022-10-25T20:16:22.551Z,20.52
2022-10-25T20:18:50.624Z,19.90
2022-10-25T20:21:20.791Z,21.77
2022-10-25T20:23:53.712Z,20.03
2022-10-25T20:26:24.410Z,18.77
2022-10-25T20:28:53.814Z,18.50
2022-10-25T20:31:23.011Z,17.13
2022-10-25T20:33:51.483Z,17.43
2022-10-25T20:36:19.497Z,18.90
2022-10-25T20:38:47.501Z,19.75
2022-10-25T20:41:16.998Z,21.07
2022-10-25T20:43:49.121Z,21.97
2022-10-25T20:46:18.216Z,23.10
2022-10-25T20:48:46.501Z,22.87
2022-10-25T20:51:15.683Z,23.47
2022-10-25T20:53:44.168Z,22.20
2022-10-25T20:56:13.323Z,22.03
2022-10-25T20:58:42.315Z,22.67
2022-10-25T21:01:12.295Z,24.90
2022-10-25T21:03:40.675Z,23.40
2022-10-25T21:06:10.541Z,23.87
2022-10-25T21:08:39.192Z,22.33
2022-10-25T21:11:09.409Z,23.03
2022-10-25T21:13:38.029Z,21.40
2022-10-25T21:16:07.112Z,20.70
2022-10-25T21:18:37.608Z,20.13
2022-10-25T21:21:07.881Z,19.80
2022-10-25T21:23:36.152Z,18.60
2022-10-25T21:26:06.276Z,18.98
2022-10-25T21:28:36.618Z,19.00
2022-10-25T21:31:05.669Z,17.23
2022-10-25T21:33:33.667Z,16.92
2022-10-25T21:36:08.083Z,17.87
2022-10-25T21:38:36.181Z,16.27
2022-10-25T21:41:12.429Z,17.60
2022-10-25T21:43:44.123Z,18.52
2022-10-25T21:46:12.451Z,18.90
2022-10-25T21:48:40.638Z,18.63
2022-10-25T21:51:09.988Z,17.45
2022-10-25T21:53:38.056Z,18.17
2022-10-25T21:56:10.311Z,18.92
2022-10-25T21:58:38.396Z,18.45
2022-10-25T22:01:09.697Z,18.60
2022-10-25T22:03:38.013Z,17.37
2022-10-25T22:06:07.157Z,17.90
2022-10-25T22:08:36.642Z,17.40
2022-10-25T22:11:07.956Z,16.93
2022-10-25T22:13:36.325Z,19.07
2022-10-25T22:16:06.792Z,18.43
2022-10-25T22:18:34.765Z,18.23
2022-10-25T22:21:05.197Z,19.27
2022-10-25T22:23:33.834Z,18.63
2022-10-25T22:26:05.290Z,19.13
2022-10-25T22:28:36.684Z,19.07
2022-10-25T22:31:09.712Z,20.23
2022-10-25T22:33:37.682Z,20.60
2022-10-25T22:36:06.950Z,19.93
2022-10-25T22:38:35.178Z,20.70
2022-10-25T22:41:07.391Z,20.07
2022-10-25T22:43:36.611Z,20.27
2022-10-25T22:46:07.148Z,19.67
2022-10-25T22:48:36.728Z,19.00
2022-10-25T22:51:04.946Z,19.63
2022-10-25T22:53:33.570Z,19.93
2022-10-25T22:56:04.818Z,18.93
2022-10-25T22:58:34.059Z,19.27
2022-10-25T23:03:33.495Z,20.53
2022-10-25T23:06:02.230Z,20.00
2022-10-25T23:08:30.915Z,20.67
2022-10-25T23:11:00.483Z,19.90
2022-10-25T23:13:30.349Z,19.90
2022-10-25T23:15:58.355Z,19.53
2022-10-25T23:18:26.838Z,19.83
2022-10-25T23:20:56.557Z,19.63
2022-10-25T23:23:25.388Z,19.47
2022-10-25T23:25:54.466Z,20.17
2022-10-25T23:28:22.711Z,18.73
2022-10-25T23:30:51.989Z,19.07
2022-10-25T23:33:19.939Z,19.33
2022-10-25T23:35:47.903Z,19.90
2022-10-25T23:38:16.132Z,20.43
2022-10-25T23:40:47.174Z,19.07
2022-10-25T23:43:15.319Z,19.10
2022-10-25T23:45:43.654Z,19.50
2022-10-25T23:48:12.947Z,19.70
2022-10-25T23:50:40.853Z,18.63
2022-10-25T23:53:09.454Z,19.07
2022-10-25T23:55:38.665Z,18.90
2022-10-25T23:58:06.741Z,18.50
